sensor_id;sensor_type;location;lat;lon;timestamp;P1;durP1;ratioP1;P2;durP2;ratioP2
9465;SDS011;4771;48.726;9.006;2023-04-25T00:00:45;3.27;;;1.80;;
9465;SDS011;4771;48.726;9.006;2023-04-25T00:03:12;1.90;;;1.70;;
9465;SDS011;4771;48.726;9.006;2023-04-25T00:05:38;3.53;;;1.90;;
9465;SDS011;4771;48.726;9.006;2023-04-25T00:08:06;2.03;;;1.60;;
9465;SDS011;4771;48.726;9.006;2023-04-25T00:10:33;1.80;;;1.60;;
9465;SDS011;4771;48.726;9.006;2023-04-25T00:13:01;1.80;;;1.67;;
9465;SDS011;4771;48.726;9.006;2023-04-25T00:15:28;2.37;;;1.97;;
9465;SDS011;4771;48.726;9.006;2023-04-25T00:17:56;2.50;;;1.90;;
9465;SDS011;4771;48.726;9.006;2023-04-25T00:20:23;3.13;;;1.60;;
9465;SDS011;4771;48.726;9.006;2023-04-25T00:22:50;3.00;;;1.60;;
9465;SDS011;4771;48.726;9.006;2023-04-25T00:25:17;2.83;;;1.70;;
9465;SDS011;4771;48.726;9.006;2023-04-25T00:27:44;3.17;;;1.70;;
9465;SDS011;4771;48.726;9.006;2023-04-25T00:30:13;2.77;;;1.60;;
9465;SDS011;4771;48.726;9.006;2023-04-25T00:32:40;3.93;;;1.97;;
9465;SDS011;4771;48.726;9.006;2023-04-25T00:35:08;3.27;;;2.00;;
9465;SDS011;4771;48.726;9.006;2023-04-25T00:37:35;2.17;;;1.90;;
9465;SDS011;4771;48.726;9.006;2023-04-25T00:40:03;2.10;;;1.87;;
9465;SDS011;4771;48.726;9.006;2023-04-25T00:42:32;3.33;;;2.07;;
9465;SDS011;4771;48.726;9.006;2023-04-25T00:45:01;3.10;;;2.13;;
9465;SDS011;4771;48.726;9.006;2023-04-25T00:47:31;2.00;;;1.80;;
9465;SDS011;4771;48.726;9.006;2023-04-25T00:49:59;2.67;;;1.73;;
9465;SDS011;4771;48.726;9.006;2023-04-25T00:52:26;2.37;;;1.70;;
9465;SDS011;4771;48.726;9.006;2023-04-25T00:54:53;1.97;;;1.80;;
9465;SDS011;4771;48.726;9.006;2023-04-25T00:57:20;3.00;;;2.10;;
9465;SDS011;4771;48.726;9.006;2023-04-25T00:59:47;3.27;;;1.90;;
9465;SDS011;4771;48.726;9.006;2023-04-25T01:02:17;3.20;;;1.97;;
9465;SDS011;4771;48.726;9.006;2023-04-25T01:04:46;3.00;;;1.97;;
9465;SDS011;4771;48.726;9.006;2023-04-25T01:07:14;4.47;;;2.30;;
9465;SDS011;4771;48.726;9.006;2023-04-25T01:09:41;2.40;;;2.10;;
9465;SDS011;4771;48.726;9.006;2023-04-25T01:12:08;3.13;;;2.00;;
9465;SDS011;4771;48.726;9.006;2023-04-25T01:14:35;3.47;;;2.00;;
9465;SDS011;4771;48.726;9.006;2023-04-25T01:17:02;3.23;;;2.00;;
9465;SDS011;4771;48.726;9.006;2023-04-25T01:19:29;3.77;;;2.03;;
9465;SDS011;4771;48.726;9.006;2023-04-25T01:21:57;3.60;;;2.13;;
9465;SDS011;4771;48.726;9.006;2023-04-25T01:24:25;2.63;;;2.00;;
9465;SDS011;4771;48.726;9.006;2023-04-25T01:26:52;3.13;;;2.17;;
9465;SDS011;4771;48.726;9.006;2023-04-25T01:29:21;3.20;;;1.93;;
9465;SDS011;4771;48.726;9.006;2023-04-25T01:31:49;2.67;;;1.93;;
9465;SDS011;4771;48.726;9.006;2023-04-25T01:34:17;3.80;;;2.10;;
9465;SDS011;4771;48.726;9.006;2023-04-25T01:36:44;3.80;;;2.23;;
9465;SDS011;4771;48.726;9.006;2023-04-25T01:39:12;2.40;;;1.90;;
9465;SDS011;4771;48.726;9.006;2023-04-25T01:41:39;2.17;;;1.97;;
9465;SDS011;4771;48.726;9.006;2023-04-25T01:44:06;3.27;;;2.20;;
9465;SDS011;4771;48.726;9.006;2023-04-25T01:46:33;2.80;;;2.10;;
9465;SDS011;4771;48.726;9.006;2023-04-25T01:49:00;4.00;;;2.30;;
9465;SDS011;4771;48.726;9.006;2023-04-25T01:51:27;2.63;;;2.00;;
9465;SDS011;4771;48.726;9.006;2023-04-25T01:53:55;3.37;;;2.40;;
9465;SDS011;4771;48.726;9.006;2023-04-25T01:56:24;4.10;;;1.93;;
9465;SDS011;4771;48.726;9.006;2023-04-25T01:58:50;2.57;;;2.07;;
9465;SDS011;4771;48.726;9.006;2023-04-25T02:01:17;3.97;;;2.20;;
9465;SDS011;4771;48.726;9.006;2023-04-25T02:03:44;2.17;;;1.97;;
9465;SDS011;4771;48.726;9.006;2023-04-25T02:06:11;2.87;;;2.20;;
9465;SDS011;4771;48.726;9.006;2023-04-25T02:08:38;4.47;;;2.10;;
9465;SDS011;4771;48.726;9.006;2023-04-25T02:11:05;3.90;;;2.03;;
9465;SDS011;4771;48.726;9.006;2023-04-25T02:13:33;2.33;;;1.90;;
9465;SDS011;4771;48.726;9.006;2023-04-25T02:16:00;2.73;;;2.03;;
9465;SDS011;4771;48.726;9.006;2023-04-25T02:18:27;3.73;;;1.77;;
9465;SDS011;4771;48.726;9.006;2023-04-25T02:20:54;4.80;;;2.00;;
9465;SDS011;4771;48.726;9.006;2023-04-25T02:23:21;3.07;;;1.90;;
9465;SDS011;4771;48.726;9.006;2023-04-25T02:25:48;2.10;;;1.67;;
9465;SDS011;4771;48.726;9.006;2023-04-25T02:28:15;2.97;;;2.27;;
9465;SDS011;4771;48.726;9.006;2023-04-25T02:30:43;3.80;;;1.80;;
9465;SDS011;4771;48.726;9.006;2023-04-25T02:33:10;2.37;;;1.63;;
9465;SDS011;4771;48.726;9.006;2023-04-25T02:35:37;3.43;;;1.70;;
9465;SDS011;4771;48.726;9.006;2023-04-25T02:38:04;2.70;;;1.73;;
9465;SDS011;4771;48.726;9.006;2023-04-25T02:40:31;2.53;;;1.60;;
9465;SDS011;4771;48.726;9.006;2023-04-25T02:42:58;2.27;;;1.60;;
9465;SDS011;4771;48.726;9.006;2023-04-25T02:45:25;2.00;;;1.70;;
9465;SDS011;4771;48.726;9.006;2023-04-25T02:47:53;3.27;;;1.80;;
9465;SDS011;4771;48.726;9.006;2023-04-25T02:50:20;3.73;;;2.00;;
9465;SDS011;4771;48.726;9.006;2023-04-25T02:52:46;4.20;;;1.90;;
9465;SDS011;4771;48.726;9.006;2023-04-25T02:55:13;3.57;;;1.83;;
9465;SDS011;4771;48.726;9.006;2023-04-25T02:57:40;2.43;;;1.83;;
9465;SDS011;4771;48.726;9.006;2023-04-25T03:00:07;2.90;;;1.80;;
9465;SDS011;4771;48.726;9.006;2023-04-25T03:02:36;2.90;;;1.87;;
9465;SDS011;4771;48.726;9.006;2023-04-25T03:05:05;3.00;;;1.70;;
9465;SDS011;4771;48.726;9.006;2023-04-25T03:07:32;2.90;;;1.83;;
9465;SDS011;4771;48.726;9.006;2023-04-25T03:09:59;1.83;;;1.63;;
9465;SDS011;4771;48.726;9.006;2023-04-25T03:12:25;2.57;;;1.90;;
9465;SDS011;4771;48.726;9.006;2023-04-25T03:14:52;3.23;;;1.67;;
9465;SDS011;4771;48.726;9.006;2023-04-25T03:17:19;4.17;;;2.10;;
9465;SDS011;4771;48.726;9.006;2023-04-25T03:19:46;1.97;;;1.80;;
9465;SDS011;4771;48.726;9.006;2023-04-25T03:22:14;3.30;;;1.97;;
9465;SDS011;4771;48.726;9.006;2023-04-25T03:24:42;2.57;;;1.97;;
9465;SDS011;4771;48.726;9.006;2023-04-25T03:27:08;3.13;;;2.00;;
9465;SDS011;4771;48.726;9.006;2023-04-25T03:29:35;3.23;;;1.90;;
9465;SDS011;4771;48.726;9.006;2023-04-25T03:32:02;2.20;;;1.77;;
9465;SDS011;4771;48.726;9.006;2023-04-25T03:34:29;1.80;;;1.63;;
9465;SDS011;4771;48.726;9.006;2023-04-25T03:36:56;1.90;;;1.73;;
9465;SDS011;4771;48.726;9.006;2023-04-25T03:39:28;3.77;;;2.00;;
9465;SDS011;4771;48.726;9.006;2023-04-25T03:41:55;2.43;;;1.70;;
9465;SDS011;4771;48.726;9.006;2023-04-25T03:44:21;2.60;;;1.97;;
9465;SDS011;4771;48.726;9.006;2023-04-25T03:46:49;2.83;;;2.13;;
9465;SDS011;4771;48.726;9.006;2023-04-25T03:49:16;2.53;;;2.10;;
9465;SDS011;4771;48.726;9.006;2023-04-25T03:51:43;1.90;;;1.77;;
9465;SDS011;4771;48.726;9.006;2023-04-25T03:54:10;2.60;;;2.03;;
9465;SDS011;4771;48.726;9.006;2023-04-25T03:56:38;3.77;;;2.10;;
9465;SDS011;4771;48.726;9.006;2023-04-25T03:59:05;4.40;;;2.10;;
9465;SDS011;4771;48.726;9.006;2023-04-25T04:01:32;2.03;;;1.80;;
9465;SDS011;4771;48.726;9.006;2023-04-25T04:04:00;6.33;;;2.63;;
9465;SDS011;4771;48.726;9.006;2023-04-25T04:06:27;2.97;;;2.00;;
9465;SDS011;4771;48.726;9.006;2023-04-25T04:08:54;3.37;;;2.20;;
9465;SDS011;4771;48.726;9.006;2023-04-25T04:11:21;2.37;;;2.10;;
9465;SDS011;4771;48.726;9.006;2023-04-25T04:13:50;3.53;;;2.10;;
9465;SDS011;4771;48.726;9.006;2023-04-25T04:16:16;2.50;;;2.00;;
9465;SDS011;4771;48.726;9.006;2023-04-25T04:18:44;2.37;;;2.00;;
9465;SDS011;4771;48.726;9.006;2023-04-25T04:21:11;3.23;;;2.10;;
9465;SDS011;4771;48.726;9.006;2023-04-25T04:23:38;2.83;;;2.17;;
9465;SDS011;4771;48.726;9.006;2023-04-25T04:26:05;3.10;;;2.23;;
9465;SDS011;4771;48.726;9.006;2023-04-25T04:28:33;4.37;;;2.23;;
9465;SDS011;4771;48.726;9.006;2023-04-25T04:31:02;2.77;;;2.27;;
9465;SDS011;4771;48.726;9.006;2023-04-25T04:33:29;2.57;;;2.03;;
9465;SDS011;4771;48.726;9.006;2023-04-25T04:35:56;4.03;;;2.30;;
9465;SDS011;4771;48.726;9.006;2023-04-25T04:38:24;2.80;;;2.13;;
9465;SDS011;4771;48.726;9.006;2023-04-25T04:40:51;3.60;;;2.30;;
9465;SDS011;4771;48.726;9.006;2023-04-25T04:43:18;4.30;;;2.40;;
9465;SDS011;4771;48.726;9.006;2023-04-25T04:45:45;2.90;;;2.20;;
9465;SDS011;4771;48.726;9.006;2023-04-25T04:48:14;3.23;;;2.37;;
9465;SDS011;4771;48.726;9.006;2023-04-25T04:50:42;5.33;;;2.53;;
9465;SDS011;4771;48.726;9.006;2023-04-25T04:53:10;5.43;;;2.67;;
9465;SDS011;4771;48.726;9.006;2023-04-25T04:55:39;5.43;;;2.90;;
9465;SDS011;4771;48.726;9.006;2023-04-25T04:58:06;2.97;;;2.50;;
9465;SDS011;4771;48.726;9.006;2023-04-25T05:00:33;4.77;;;2.97;;
9465;SDS011;4771;48.726;9.006;2023-04-25T05:03:00;6.03;;;2.47;;
9465;SDS011;4771;48.726;9.006;2023-04-25T05:05:29;4.43;;;2.30;;
9465;SDS011;4771;48.726;9.006;2023-04-25T05:07:55;4.30;;;2.33;;
9465;SDS011;4771;48.726;9.006;2023-04-25T05:10:22;2.60;;;2.37;;
9465;SDS011;4771;48.726;9.006;2023-04-25T05:12:49;4.33;;;2.53;;
9465;SDS011;4771;48.726;9.006;2023-04-25T05:15:16;3.30;;;2.70;;
9465;SDS011;4771;48.726;9.006;2023-04-25T05:17:44;5.30;;;2.83;;
9465;SDS011;4771;48.726;9.006;2023-04-25T05:20:11;5.10;;;2.50;;
9465;SDS011;4771;48.726;9.006;2023-04-25T05:22:40;3.93;;;2.60;;
9465;SDS011;4771;48.726;9.006;2023-04-25T05:25:08;4.33;;;2.60;;
9465;SDS011;4771;48.726;9.006;2023-04-25T05:27:35;5.80;;;2.90;;
9465;SDS011;4771;48.726;9.006;2023-04-25T05:30:02;4.40;;;2.60;;
9465;SDS011;4771;48.726;9.006;2023-04-25T05:32:30;3.80;;;2.43;;
9465;SDS011;4771;48.726;9.006;2023-04-25T05:34:57;4.03;;;2.70;;
9465;SDS011;4771;48.726;9.006;2023-04-25T05:37:24;4.80;;;2.70;;
9465;SDS011;4771;48.726;9.006;2023-04-25T05:39:52;5.33;;;3.00;;
9465;SDS011;4771;48.726;9.006;2023-04-25T05:42:19;3.30;;;2.90;;
9465;SDS011;4771;48.726;9.006;2023-04-25T05:44:46;3.13;;;2.63;;
9465;SDS011;4771;48.726;9.006;2023-04-25T05:47:13;5.70;;;2.73;;
9465;SDS011;4771;48.726;9.006;2023-04-25T05:49:40;3.37;;;2.77;;
9465;SDS011;4771;48.726;9.006;2023-04-25T05:52:07;5.40;;;2.70;;
9465;SDS011;4771;48.726;9.006;2023-04-25T05:54:34;6.57;;;3.23;;
9465;SDS011;4771;48.726;9.006;2023-04-25T05:57:02;20.40;;;4.93;;
9465;SDS011;4771;48.726;9.006;2023-04-25T05:59:29;19.63;;;4.73;;
9465;SDS011;4771;48.726;9.006;2023-04-25T06:01:56;14.20;;;4.80;;
9465;SDS011;4771;48.726;9.006;2023-04-25T06:04:23;8.10;;;4.20;;
9465;SDS011;4771;48.726;9.006;2023-04-25T06:06:49;3.93;;;3.10;;
9465;SDS011;4771;48.726;9.006;2023-04-25T06:09:16;6.13;;;3.20;;
9465;SDS011;4771;48.726;9.006;2023-04-25T06:11:43;24.83;;;17.27;;
9465;SDS011;4771;48.726;9.006;2023-04-25T06:14:11;57.00;;;32.80;;
9465;SDS011;4771;48.726;9.006;2023-04-25T06:16:38;36.57;;;22.10;;
9465;SDS011;4771;48.726;9.006;2023-04-25T06:19:05;15.90;;;9.33;;
9465;SDS011;4771;48.726;9.006;2023-04-25T06:21:32;18.63;;;13.67;;
9465;SDS011;4771;48.726;9.006;2023-04-25T06:23:59;14.90;;;7.67;;
9465;SDS011;4771;48.726;9.006;2023-04-25T06:26:26;8.70;;;4.90;;
9465;SDS011;4771;48.726;9.006;2023-04-25T06:28:53;6.17;;;3.87;;
9465;SDS011;4771;48.726;9.006;2023-04-25T06:31:21;10.53;;;3.80;;
9465;SDS011;4771;48.726;9.006;2023-04-25T06:33:48;10.93;;;4.80;;
9465;SDS011;4771;48.726;9.006;2023-04-25T06:36:15;8.93;;;4.10;;
9465;SDS011;4771;48.726;9.006;2023-04-25T06:38:42;8.10;;;4.87;;
9465;SDS011;4771;48.726;9.006;2023-04-25T06:41:09;6.90;;;3.80;;
9465;SDS011;4771;48.726;9.006;2023-04-25T06:43:36;9.13;;;3.70;;
9465;SDS011;4771;48.726;9.006;2023-04-25T06:46:02;7.00;;;3.40;;
9465;SDS011;4771;48.726;9.006;2023-04-25T06:48:31;6.43;;;3.20;;
9465;SDS011;4771;48.726;9.006;2023-04-25T06:50:58;4.47;;;2.70;;
9465;SDS011;4771;48.726;9.006;2023-04-25T06:53:25;3.07;;;2.60;;
9465;SDS011;4771;48.726;9.006;2023-04-25T06:55:52;4.17;;;3.00;;
9465;SDS011;4771;48.726;9.006;2023-04-25T06:58:18;5.67;;;3.20;;
9465;SDS011;4771;48.726;9.006;2023-04-25T07:00:45;3.77;;;3.00;;
9465;SDS011;4771;48.726;9.006;2023-04-25T07:03:12;3.77;;;3.20;;
9465;SDS011;4771;48.726;9.006;2023-04-25T07:05:41;5.40;;;3.37;;
9465;SDS011;4771;48.726;9.006;2023-04-25T07:08:08;3.57;;;3.10;;
9465;SDS011;4771;48.726;9.006;2023-04-25T07:10:35;5.57;;;3.30;;
9465;SDS011;4771;48.726;9.006;2023-04-25T07:13:05;6.00;;;3.70;;
9465;SDS011;4771;48.726;9.006;2023-04-25T07:15:32;4.30;;;3.57;;
9465;SDS011;4771;48.726;9.006;2023-04-25T07:18:00;5.47;;;3.93;;
9465;SDS011;4771;48.726;9.006;2023-04-25T07:20:27;5.43;;;3.90;;
9465;SDS011;4771;48.726;9.006;2023-04-25T07:22:57;7.30;;;3.93;;
9465;SDS011;4771;48.726;9.006;2023-04-25T07:25:24;6.50;;;3.70;;
9465;SDS011;4771;48.726;9.006;2023-04-25T07:27:51;7.37;;;4.13;;
9465;SDS011;4771;48.726;9.006;2023-04-25T07:30:23;57.07;;;8.03;;
9465;SDS011;4771;48.726;9.006;2023-04-25T07:32:50;26.07;;;5.30;;
9465;SDS011;4771;48.726;9.006;2023-04-25T07:35:17;9.10;;;3.97;;
9465;SDS011;4771;48.726;9.006;2023-04-25T07:37:44;6.00;;;4.13;;
9465;SDS011;4771;48.726;9.006;2023-04-25T07:40:12;4.37;;;3.53;;
9465;SDS011;4771;48.726;9.006;2023-04-25T07:42:40;4.40;;;4.00;;
9465;SDS011;4771;48.726;9.006;2023-04-25T07:45:08;5.00;;;4.20;;
9465;SDS011;4771;48.726;9.006;2023-04-25T07:47:36;6.83;;;4.10;;
9465;SDS011;4771;48.726;9.006;2023-04-25T07:50:03;4.40;;;4.00;;
9465;SDS011;4771;48.726;9.006;2023-04-25T07:52:31;5.77;;;4.13;;
9465;SDS011;4771;48.726;9.006;2023-04-25T07:54:57;5.47;;;4.27;;
9465;SDS011;4771;48.726;9.006;2023-04-25T07:57:26;6.03;;;4.27;;
9465;SDS011;4771;48.726;9.006;2023-04-25T07:59:53;6.53;;;4.10;;
9465;SDS011;4771;48.726;9.006;2023-04-25T08:02:22;4.63;;;3.50;;
9465;SDS011;4771;48.726;9.006;2023-04-25T08:04:51;4.57;;;3.57;;
9465;SDS011;4771;48.726;9.006;2023-04-25T08:07:17;4.63;;;3.50;;
9465;SDS011;4771;48.726;9.006;2023-04-25T08:09:44;5.93;;;3.47;;
9465;SDS011;4771;48.726;9.006;2023-04-25T08:12:11;3.90;;;3.40;;
9465;SDS011;4771;48.726;9.006;2023-04-25T08:14:39;4.20;;;3.47;;
9465;SDS011;4771;48.726;9.006;2023-04-25T08:17:06;4.23;;;3.43;;
9465;SDS011;4771;48.726;9.006;2023-04-25T08:19:33;4.87;;;3.90;;
9465;SDS011;4771;48.726;9.006;2023-04-25T08:22:00;4.33;;;3.50;;
9465;SDS011;4771;48.726;9.006;2023-04-25T08:24:27;3.93;;;3.37;;
9465;SDS011;4771;48.726;9.006;2023-04-25T08:26:54;5.00;;;3.30;;
9465;SDS011;4771;48.726;9.006;2023-04-25T08:29:21;3.90;;;3.53;;
9465;SDS011;4771;48.726;9.006;2023-04-25T08:31:51;4.40;;;3.50;;
9465;SDS011;4771;48.726;9.006;2023-04-25T08:34:18;3.97;;;3.57;;
9465;SDS011;4771;48.726;9.006;2023-04-25T08:36:45;4.63;;;3.70;;
9465;SDS011;4771;48.726;9.006;2023-04-25T08:39:11;5.03;;;4.00;;
9465;SDS011;4771;48.726;9.006;2023-04-25T08:41:39;4.80;;;4.23;;
9465;SDS011;4771;48.726;9.006;2023-04-25T08:44:07;4.33;;;3.70;;
9465;SDS011;4771;48.726;9.006;2023-04-25T08:46:37;5.30;;;3.70;;
9465;SDS011;4771;48.726;9.006;2023-04-25T08:49:07;5.80;;;3.50;;
9465;SDS011;4771;48.726;9.006;2023-04-25T08:51:35;4.57;;;3.90;;
9465;SDS011;4771;48.726;9.006;2023-04-25T08:54:08;3.83;;;3.43;;
9465;SDS011;4771;48.726;9.006;2023-04-25T08:56:36;3.70;;;3.40;;
9465;SDS011;4771;48.726;9.006;2023-04-25T08:59:04;5.00;;;3.70;;
9465;SDS011;4771;48.726;9.006;2023-04-25T09:01:33;4.33;;;3.73;;
9465;SDS011;4771;48.726;9.006;2023-04-25T09:04:00;4.40;;;3.93;;
9465;SDS011;4771;48.726;9.006;2023-04-25T09:09:01;6.43;;;3.90;;
9465;SDS011;4771;48.726;9.006;2023-04-25T09:11:29;4.77;;;4.03;;
9465;SDS011;4771;48.726;9.006;2023-04-25T09:14:09;4.30;;;3.87;;
9465;SDS011;4771;48.726;9.006;2023-04-25T09:16:49;4.57;;;3.80;;
9465;SDS011;4771;48.726;9.006;2023-04-25T09:19:24;5.83;;;3.93;;
9465;SDS011;4771;48.726;9.006;2023-04-25T09:21:54;4.17;;;3.77;;
9465;SDS011;4771;48.726;9.006;2023-04-25T09:24:32;4.30;;;3.60;;
9465;SDS011;4771;48.726;9.006;2023-04-25T09:27:04;4.47;;;3.67;;
9465;SDS011;4771;48.726;9.006;2023-04-25T09:29:32;4.17;;;3.77;;
9465;SDS011;4771;48.726;9.006;2023-04-25T09:32:16;4.73;;;3.73;;
9465;SDS011;4771;48.726;9.006;2023-04-25T09:34:44;4.70;;;3.50;;
9465;SDS011;4771;48.726;9.006;2023-04-25T09:37:18;4.60;;;3.20;;
9465;SDS011;4771;48.726;9.006;2023-04-25T09:39:46;3.27;;;2.90;;
9465;SDS011;4771;48.726;9.006;2023-04-25T09:42:13;2.50;;;2.30;;
9465;SDS011;4771;48.726;9.006;2023-04-25T09:44:42;2.03;;;1.83;;
9465;SDS011;4771;48.726;9.006;2023-04-25T09:47:10;2.07;;;1.90;;
9465;SDS011;4771;48.726;9.006;2023-04-25T09:49:39;1.50;;;1.40;;
9465;SDS011;4771;48.726;9.006;2023-04-25T09:52:07;1.80;;;1.70;;
9465;SDS011;4771;48.726;9.006;2023-04-25T09:54:35;4.20;;;1.70;;
9465;SDS011;4771;48.726;9.006;2023-04-25T09:57:05;1.73;;;1.40;;
9465;SDS011;4771;48.726;9.006;2023-04-25T09:59:38;1.40;;;1.30;;
9465;SDS011;4771;48.726;9.006;2023-04-25T10:02:08;2.47;;;2.07;;
9465;SDS011;4771;48.726;9.006;2023-04-25T10:04:36;1.60;;;1.27;;
9465;SDS011;4771;48.726;9.006;2023-04-25T10:07:05;1.30;;;1.20;;
9465;SDS011;4771;48.726;9.006;2023-04-25T10:09:33;1.43;;;1.20;;
9465;SDS011;4771;48.726;9.006;2023-04-25T10:12:04;1.40;;;1.30;;
9465;SDS011;4771;48.726;9.006;2023-04-25T10:14:32;2.03;;;1.40;;
9465;SDS011;4771;48.726;9.006;2023-04-25T10:17:00;1.20;;;1.10;;
9465;SDS011;4771;48.726;9.006;2023-04-25T10:19:27;1.10;;;1.00;;
9465;SDS011;4771;48.726;9.006;2023-04-25T10:21:55;1.40;;;1.30;;
9465;SDS011;4771;48.726;9.006;2023-04-25T10:24:29;1.10;;;1.00;;
9465;SDS011;4771;48.726;9.006;2023-04-25T10:26:57;2.30;;;1.10;;
9465;SDS011;4771;48.726;9.006;2023-04-25T10:29:26;1.50;;;1.03;;
9465;SDS011;4771;48.726;9.006;2023-04-25T10:31:53;0.97;;;0.90;;
9465;SDS011;4771;48.726;9.006;2023-04-25T10:34:23;1.00;;;1.00;;
9465;SDS011;4771;48.726;9.006;2023-04-25T10:36:51;1.00;;;1.00;;
9465;SDS011;4771;48.726;9.006;2023-04-25T10:39:23;1.50;;;1.13;;
9465;SDS011;4771;48.726;9.006;2023-04-25T10:41:53;0.90;;;0.90;;
9465;SDS011;4771;48.726;9.006;2023-04-25T10:44:24;1.90;;;0.90;;
9465;SDS011;4771;48.726;9.006;2023-04-25T10:46:54;1.80;;;1.30;;
9465;SDS011;4771;48.726;9.006;2023-04-25T10:49:29;1.87;;;1.67;;
9465;SDS011;4771;48.726;9.006;2023-04-25T10:54:46;1.20;;;1.10;;
9465;SDS011;4771;48.726;9.006;2023-04-25T10:57:27;1.30;;;1.20;;
9465;SDS011;4771;48.726;9.006;2023-04-25T10:59:59;1.37;;;1.27;;
9465;SDS011;4771;48.726;9.006;2023-04-25T11:02:40;1.30;;;1.20;;
9465;SDS011;4771;48.726;9.006;2023-04-25T11:05:08;1.60;;;1.50;;
9465;SDS011;4771;48.726;9.006;2023-04-25T11:07:44;2.10;;;1.90;;
9465;SDS011;4771;48.726;9.006;2023-04-25T11:10:16;3.07;;;1.37;;
9465;SDS011;4771;48.726;9.006;2023-04-25T11:12:44;2.13;;;1.23;;
9465;SDS011;4771;48.726;9.006;2023-04-25T11:15:13;1.33;;;1.23;;
9465;SDS011;4771;48.726;9.006;2023-04-25T11:17:39;2.03;;;1.77;;
9465;SDS011;4771;48.726;9.006;2023-04-25T11:20:08;2.53;;;2.33;;
9465;SDS011;4771;48.726;9.006;2023-04-25T11:22:37;3.03;;;2.60;;
9465;SDS011;4771;48.726;9.006;2023-04-25T11:25:05;3.10;;;2.80;;
9465;SDS011;4771;48.726;9.006;2023-04-25T11:27:33;5.20;;;3.27;;
9465;SDS011;4771;48.726;9.006;2023-04-25T11:30:09;3.57;;;2.70;;
9465;SDS011;4771;48.726;9.006;2023-04-25T11:32:40;4.70;;;2.60;;
9465;SDS011;4771;48.726;9.006;2023-04-25T11:35:08;3.33;;;2.90;;
9465;SDS011;4771;48.726;9.006;2023-04-25T11:37:35;3.47;;;3.10;;
9465;SDS011;4771;48.726;9.006;2023-04-25T11:40:02;3.47;;;2.90;;
9465;SDS011;4771;48.726;9.006;2023-04-25T11:42:31;4.10;;;2.90;;
9465;SDS011;4771;48.726;9.006;2023-04-25T11:44:58;3.13;;;2.83;;
9465;SDS011;4771;48.726;9.006;2023-04-25T11:47:27;3.27;;;2.97;;
9465;SDS011;4771;48.726;9.006;2023-04-25T11:49:57;2.80;;;2.60;;
9465;SDS011;4771;48.726;9.006;2023-04-25T11:52:34;3.93;;;2.80;;
9465;SDS011;4771;48.726;9.006;2023-04-25T11:55:03;2.73;;;2.53;;
9465;SDS011;4771;48.726;9.006;2023-04-25T11:57:32;2.90;;;2.57;;
9465;SDS011;4771;48.726;9.006;2023-04-25T12:00:04;2.30;;;2.10;;
9465;SDS011;4771;48.726;9.006;2023-04-25T12:02:36;2.60;;;2.10;;
9465;SDS011;4771;48.726;9.006;2023-04-25T12:05:07;2.40;;;2.20;;
9465;SDS011;4771;48.726;9.006;2023-04-25T12:07:34;3.10;;;2.30;;
9465;SDS011;4771;48.726;9.006;2023-04-25T12:10:06;2.40;;;2.20;;
9465;SDS011;4771;48.726;9.006;2023-04-25T12:12:34;2.70;;;2.50;;
9465;SDS011;4771;48.726;9.006;2023-04-25T12:15:08;2.70;;;2.50;;
9465;SDS011;4771;48.726;9.006;2023-04-25T12:17:36;3.63;;;3.33;;
9465;SDS011;4771;48.726;9.006;2023-04-25T12:20:08;5.27;;;3.60;;
9465;SDS011;4771;48.726;9.006;2023-04-25T12:22:37;4.80;;;3.83;;
9465;SDS011;4771;48.726;9.006;2023-04-25T12:25:04;3.97;;;3.33;;
9465;SDS011;4771;48.726;9.006;2023-04-25T12:27:32;5.37;;;3.80;;
9465;SDS011;4771;48.726;9.006;2023-04-25T12:30:01;6.03;;;3.63;;
9465;SDS011;4771;48.726;9.006;2023-04-25T12:32:28;4.23;;;3.70;;
9465;SDS011;4771;48.726;9.006;2023-04-25T12:34:56;4.27;;;3.80;;
9465;SDS011;4771;48.726;9.006;2023-04-25T12:37:24;5.23;;;3.83;;
9465;SDS011;4771;48.726;9.006;2023-04-25T12:39:51;4.53;;;3.77;;
9465;SDS011;4771;48.726;9.006;2023-04-25T12:42:18;5.83;;;4.60;;
9465;SDS011;4771;48.726;9.006;2023-04-25T12:44:45;4.63;;;4.20;;
9465;SDS011;4771;48.726;9.006;2023-04-25T12:47:12;4.83;;;4.30;;
9465;SDS011;4771;48.726;9.006;2023-04-25T12:49:38;5.20;;;4.70;;
9465;SDS011;4771;48.726;9.006;2023-04-25T12:52:05;5.40;;;4.40;;
9465;SDS011;4771;48.726;9.006;2023-04-25T12:54:33;5.93;;;4.50;;
9465;SDS011;4771;48.726;9.006;2023-04-25T12:57:00;5.53;;;4.57;;
9465;SDS011;4771;48.726;9.006;2023-04-25T12:59:28;5.97;;;5.00;;
9465;SDS011;4771;48.726;9.006;2023-04-25T13:01:55;5.83;;;5.10;;
9465;SDS011;4771;48.726;9.006;2023-04-25T13:04:22;6.63;;;4.70;;
9465;SDS011;4771;48.726;9.006;2023-04-25T13:06:49;8.80;;;4.70;;
9465;SDS011;4771;48.726;9.006;2023-04-25T13:09:16;6.83;;;5.00;;
9465;SDS011;4771;48.726;9.006;2023-04-25T13:11:44;7.30;;;4.67;;
9465;SDS011;4771;48.726;9.006;2023-04-25T13:14:11;6.50;;;5.17;;
9465;SDS011;4771;48.726;9.006;2023-04-25T13:16:38;7.27;;;4.87;;
9465;SDS011;4771;48.726;9.006;2023-04-25T13:19:04;6.23;;;4.93;;
9465;SDS011;4771;48.726;9.006;2023-04-25T13:21:33;6.73;;;5.07;;
9465;SDS011;4771;48.726;9.006;2023-04-25T13:24:00;6.03;;;5.40;;
9465;SDS011;4771;48.726;9.006;2023-04-25T13:26:27;7.40;;;5.30;;
9465;SDS011;4771;48.726;9.006;2023-04-25T13:28:55;8.07;;;5.80;;
9465;SDS011;4771;48.726;9.006;2023-04-25T13:31:22;8.07;;;5.67;;
9465;SDS011;4771;48.726;9.006;2023-04-25T13:33:49;7.07;;;4.73;;
9465;SDS011;4771;48.726;9.006;2023-04-25T13:36:16;6.87;;;4.97;;
9465;SDS011;4771;48.726;9.006;2023-04-25T13:38:43;6.77;;;5.30;;
9465;SDS011;4771;48.726;9.006;2023-04-25T13:41:12;5.97;;;4.77;;
9465;SDS011;4771;48.726;9.006;2023-04-25T13:43:44;6.83;;;5.67;;
9465;SDS011;4771;48.726;9.006;2023-04-25T13:46:13;6.63;;;5.53;;
9465;SDS011;4771;48.726;9.006;2023-04-25T13:48:41;8.97;;;6.03;;
9465;SDS011;4771;48.726;9.006;2023-04-25T13:51:12;8.83;;;6.10;;
9465;SDS011;4771;48.726;9.006;2023-04-25T13:53:40;8.63;;;6.47;;
9465;SDS011;4771;48.726;9.006;2023-04-25T13:56:07;8.90;;;6.87;;
9465;SDS011;4771;48.726;9.006;2023-04-25T13:58:34;9.03;;;6.20;;
9465;SDS011;4771;48.726;9.006;2023-04-25T14:01:01;9.17;;;6.60;;
9465;SDS011;4771;48.726;9.006;2023-04-25T14:03:30;8.97;;;5.83;;
9465;SDS011;4771;48.726;9.006;2023-04-25T14:05:57;7.73;;;6.47;;
9465;SDS011;4771;48.726;9.006;2023-04-25T14:08:24;7.23;;;5.90;;
9465;SDS011;4771;48.726;9.006;2023-04-25T14:10:51;6.97;;;5.13;;
9465;SDS011;4771;48.726;9.006;2023-04-25T14:13:17;5.90;;;5.27;;
9465;SDS011;4771;48.726;9.006;2023-04-25T14:15:44;5.10;;;4.60;;
9465;SDS011;4771;48.726;9.006;2023-04-25T14:18:11;5.90;;;4.90;;
9465;SDS011;4771;48.726;9.006;2023-04-25T14:20:39;5.20;;;4.47;;
9465;SDS011;4771;48.726;9.006;2023-04-25T14:23:06;5.77;;;4.60;;
9465;SDS011;4771;48.726;9.006;2023-04-25T14:25:33;5.80;;;4.67;;
9465;SDS011;4771;48.726;9.006;2023-04-25T14:28:01;6.27;;;4.70;;
9465;SDS011;4771;48.726;9.006;2023-04-25T14:30:28;6.57;;;4.93;;
9465;SDS011;4771;48.726;9.006;2023-04-25T14:32:55;5.60;;;4.50;;
9465;SDS011;4771;48.726;9.006;2023-04-25T14:35:22;5.50;;;4.20;;
9465;SDS011;4771;48.726;9.006;2023-04-25T14:37:50;5.37;;;4.30;;
9465;SDS011;4771;48.726;9.006;2023-04-25T14:40:17;5.40;;;4.10;;
9465;SDS011;4771;48.726;9.006;2023-04-25T14:42:47;5.77;;;4.00;;
9465;SDS011;4771;48.726;9.006;2023-04-25T14:45:15;4.80;;;4.13;;
9465;SDS011;4771;48.726;9.006;2023-04-25T14:47:41;4.90;;;4.00;;
9465;SDS011;4771;48.726;9.006;2023-04-25T14:50:09;6.57;;;3.57;;
9465;SDS011;4771;48.726;9.006;2023-04-25T14:52:36;4.73;;;3.57;;
9465;SDS011;4771;48.726;9.006;2023-04-25T14:55:05;6.10;;;3.70;;
9465;SDS011;4771;48.726;9.006;2023-04-25T14:57:33;5.33;;;4.30;;
9465;SDS011;4771;48.726;9.006;2023-04-25T15:00:01;5.70;;;3.40;;
9465;SDS011;4771;48.726;9.006;2023-04-25T15:02:30;5.17;;;3.90;;
9465;SDS011;4771;48.726;9.006;2023-04-25T15:04:57;3.17;;;2.83;;
9465;SDS011;4771;48.726;9.006;2023-04-25T15:07:24;4.53;;;2.90;;
9465;SDS011;4771;48.726;9.006;2023-04-25T15:09:51;2.90;;;2.70;;
9465;SDS011;4771;48.726;9.006;2023-04-25T15:12:22;4.57;;;2.93;;
9465;SDS011;4771;48.726;9.006;2023-04-25T15:14:51;3.73;;;3.00;;
9465;SDS011;4771;48.726;9.006;2023-04-25T15:17:17;4.27;;;2.80;;
9465;SDS011;4771;48.726;9.006;2023-04-25T15:19:44;4.20;;;3.10;;
9465;SDS011;4771;48.726;9.006;2023-04-25T15:22:11;3.00;;;2.70;;
9465;SDS011;4771;48.726;9.006;2023-04-25T15:24:38;3.57;;;2.87;;